Estaciones cercanas a Meteocoruna.es

 

LECO - La Coruna/Alvedro, Espana
Distancia desde EA1HNP Meteo: NNE 12km
Actualización: 02/03/2024 11:00
Muy nuboso
Muy nuboso
 Viento del NO
Viento: NO 11 km/h
Temperatura: 8°C
Sensacion: 6°C
Rocío: 5°C
Humedad: 82%
Barómetro: 1001 hPa
Nubes: Muy nuboso
Visibilidad: 10 km
Detalle de nubes: Poco nuboso 457 m
Algo nuboso 762 m
Muy nuboso 1463 m
2024/03/02 10:00 LECO 021000Z 31006KT 270V340 9999 FEW015 SCT025 BKN048 08/05 Q1001 TEMPO 3000 SHRA SCT030TCU
LEST - Santiago/Labacolla, Espana
Distancia desde EA1HNP Meteo: S 32km
Actualización: 02/03/2024 11:00
Lluvia débil, Muy nuboso
Lluvia débil, Muy nuboso
 Viento del O
Viento: O 13 km/h
Temperatura: 5°C
Sensacion: 2°C
Rocío: 4°C
Humedad: 93%
Barómetro: 1002 hPa
Resumen: Lluvia débil
Nubes: Muy nuboso
Visibilidad: 7 km
Detalle de nubes: Algo nuboso 244 m
Muy nuboso 427 m
Muy nuboso 762 m
2024/03/02 10:00 LEST 021000Z 28007KT 230V340 7000 -RA SCT008 BKN014 BKN025 05/04 Q1002 TEMPO 3000 SHRA SCT015TCU